Time;durP1;ratioP1;P1;durP2;ratioP2;P2;SDS_P1;SDS_P2;PMS_P1;PMS_P2;Temp;Humidity;BMP_temperature;BMP_pressure;BME280_temperature;BME280_humidity;BME280_pressure;Samples;Min_cycle;Max_cycle;Signal;HPM_P1;HPM_P2
2023/10/02 00:01:17;;;;;;;24.30;9.65;;;18.10;99.90;;;;;;4952790;28;20039;-60
2023/10/02 00:03:48;;;;;;;18.42;9.25;;;18.10;99.90;;;;;;4957571;28;20039;-60
2023/10/02 00:06:17;;;;;;;18.50;9.88;;;18.10;99.90;;;;;;4958292;28;20299;-60
2023/10/02 00:08:48;;;;;;;25.23;10.25;;;18.10;99.90;;;;;;4959272;28;20049;-60
2023/10/02 00:14:18;;;;;;;18.75;9.05;;;18.10;99.90;;;;;;4954738;28;20085;-61
2023/10/02 00:16:59;;;;;;;20.23;9.48;;;18.00;99.90;;;;;;4958317;28;20105;-59
2023/10/02 00:19:39;;;;;;;20.83;10.05;;;18.00;99.90;;;;;;4949469;28;20038;-59
2023/10/02 00:22:08;;;;;;;23.85;10.35;;;18.00;99.90;;;;;;4956972;28;20043;-59
2023/10/02 00:24:46;;;;;;;23.52;9.70;;;18.00;99.90;;;;;;4942003;28;20049;-60
2023/10/02 00:27:14;;;;;;;23.58;9.90;;;18.00;99.90;;;;;;4951518;28;20067;-61
2023/10/02 00:29:51;;;;;;;20.15;10.25;;;17.90;99.90;;;;;;4940835;28;20543;-60
2023/10/02 00:32:19;;;;;;;22.50;10.40;;;17.90;99.90;;;;;;4940107;28;20122;-61
2023/10/02 00:34:52;;;;;;;22.88;10.23;;;17.90;99.90;;;;;;4940423;28;20514;-60
2023/10/02 00:37:19;;;;;;;23.50;11.07;;;17.90;99.90;;;;;;4940047;28;20396;-56
2023/10/02 00:39:51;;;;;;;22.17;10.52;;;17.90;99.90;;;;;;4939657;28;20435;-58
2023/10/02 00:42:28;;;;;;;21.33;10.00;;;17.90;99.90;;;;;;4941055;28;20050;-60
2023/10/02 00:44:56;;;;;;;22.38;10.38;;;17.90;99.90;;;;;;4940396;28;20039;-60
2023/10/02 00:47:44;;;;;;;23.58;11.07;;;17.80;99.90;;;;;;4926523;29;20510;-60
2023/10/02 00:50:17;;;;;;;20.45;10.38;;;17.80;99.90;;;;;;4944399;28;20047;-60
2023/10/02 00:52:58;;;;;;;21.33;10.63;;;17.80;99.90;;;;;;4942949;28;20046;-60
2023/10/02 00:55:26;;;;;;;24.75;11.57;;;17.80;99.90;;;;;;4944224;28;20511;-60
2023/10/02 00:57:58;;;;;;;21.05;11.15;;;17.80;99.90;;;;;;4945323;28;20043;-60
2023/10/02 01:00:37;;;;;;;24.65;11.30;;;17.80;99.90;;;;;;4943617;28;20039;-59
2023/10/02 01:03:14;;;;;;;24.33;11.45;;;17.80;99.90;;;;;;4928837;28;20082;-59
2023/10/02 01:05:47;;;;;;;24.40;11.63;;;17.70;99.90;;;;;;4945875;28;20050;-60
2023/10/02 01:08:23;;;;;;;24.02;11.52;;;17.70;99.90;;;;;;4943714;28;20053;-61
2023/10/02 01:10:59;;;;;;;28.05;12.15;;;17.70;99.90;;;;;;4942639;28;20043;-60
2023/10/02 01:13:35;;;;;;;28.60;11.98;;;17.60;99.90;;;;;;4925242;28;20058;-58
2023/10/02 01:16:09;;;;;;;26.27;12.77;;;17.60;99.90;;;;;;4936398;28;20077;-60
2023/10/02 01:18:39;;;;;;;25.98;12.63;;;17.50;99.90;;;;;;4921845;29;20844;-60
2023/10/02 01:21:11;;;;;;;24.40;12.40;;;17.50;99.90;;;;;;4945274;28;20073;-59
2023/10/02 01:26:37;;;;;;;22.67;11.55;;;17.50;99.90;;;;;;4943720;28;20317;-60
2023/10/02 01:29:06;;;;;;;21.67;11.65;;;17.40;99.90;;;;;;4961963;28;20602;-59
2023/10/02 01:31:32;;;;;;;22.95;12.75;;;17.40;99.90;;;;;;4962283;28;20406;-60
2023/10/02 01:34:04;;;;;;;26.05;13.18;;;17.40;99.90;;;;;;4962595;28;22170;-59
2023/10/02 01:36:31;;;;;;;31.63;13.32;;;17.40;99.90;;;;;;4963317;28;20055;-60
2023/10/02 01:39:16;;;;;;;25.10;12.75;;;17.40;99.90;;;;;;4964173;28;20455;-60
2023/10/02 01:41:48;;;;;;;25.65;13.30;;;17.40;99.90;;;;;;4963506;28;20110;-58
2023/10/02 01:44:20;;;;;;;25.98;13.85;;;17.40;99.90;;;;;;4957656;28;20126;-60
2023/10/02 01:46:49;;;;;;;27.75;13.60;;;17.30;99.90;;;;;;4961365;28;20051;-59
2023/10/02 01:49:25;;;;;;;23.90;12.77;;;17.30;99.90;;;;;;4956124;28;20161;-59
2023/10/02 01:51:57;;;;;;;26.92;13.65;;;17.30;99.90;;;;;;4961984;28;20046;-60
2023/10/02 01:54:26;;;;;;;27.33;13.95;;;17.30;99.90;;;;;;4961697;28;20558;-60
2023/10/02 01:56:52;;;;;;;26.40;13.60;;;17.20;99.90;;;;;;4963499;28;20043;-60
2023/10/02 01:59:21;;;;;;;28.48;13.27;;;17.20;99.90;;;;;;4959617;28;20038;-61
2023/10/02 02:01:57;;;;;;;27.30;14.02;;;17.20;99.90;;;;;;4958388;28;20628;-59
2023/10/02 02:04:33;;;;;;;28.35;13.20;;;17.20;99.90;;;;;;4961801;28;20030;-59
2023/10/02 02:07:01;;;;;;;24.65;13.48;;;17.20;99.90;;;;;;4946771;28;20043;-60
2023/10/02 02:09:33;;;;;;;26.58;13.57;;;17.20;99.90;;;;;;4961943;28;20169;-60
2023/10/02 02:12:44;;;;;;;27.20;13.98;;;17.20;99.90;;;;;;4963150;28;20125;-59
2023/10/02 02:14:53;;;;;;;25.15;13.05;;;17.20;99.90;;;;;;4943064;28;20050;-59
2023/10/02 02:17:26;;;;;;;27.10;14.30;;;17.20;99.90;;;;;;4961973;28;20050;-60
2023/10/02 02:19:54;;;;;;;28.92;14.20;;;17.20;99.90;;;;;;4942313;28;20042;-60
2023/10/02 02:22:31;;;;;;;32.03;13.73;;;17.20;99.90;;;;;;4962053;28;20051;-60
2023/10/02 02:25:00;;;;;;;26.33;13.50;;;17.20;99.90;;;;;;4957454;28;20113;-60
2023/10/02 02:27:27;;;;;;;27.65;14.02;;;17.10;99.90;;;;;;4952708;28;20526;-59
2023/10/02 02:29:58;;;;;;;28.23;13.30;;;17.10;99.90;;;;;;4942196;28;20411;-58
2023/10/02 02:32:52;;;;;;;28.45;13.82;;;17.10;99.90;;;;;;4940836;28;20439;-60
2023/10/02 02:35:19;;;;;;;25.90;13.52;;;17.10;99.90;;;;;;4943762;28;20054;-59
2023/10/02 02:37:45;;;;;;;27.75;13.95;;;17.10;99.90;;;;;;4941839;28;20488;-60
2023/10/02 02:40:25;;;;;;;29.48;14.23;;;17.00;99.90;;;;;;4943642;28;20043;-59
2023/10/02 02:42:54;;;;;;;31.17;14.15;;;17.00;99.90;;;;;;4944520;28;20188;-60
2023/10/02 02:45:31;;;;;;;25.30;14.07;;;17.00;99.90;;;;;;4942116;28;20122;-60
2023/10/02 02:48:06;;;;;;;26.67;13.80;;;17.00;99.90;;;;;;4943526;28;20035;-60
2023/10/02 02:50:43;;;;;;;29.60;14.32;;;16.90;99.90;;;;;;4941050;28;20039;-59
2023/10/02 02:53:21;;;;;;;33.95;14.77;;;16.90;99.90;;;;;;4942170;28;20492;-60
2023/10/02 02:56:23;;;;;;;32.00;14.80;;;16.90;99.90;;;;;;4940552;28;20036;-59
2023/10/02 02:58:55;;;;;;;32.75;14.85;;;16.80;99.90;;;;;;4937218;28;20051;-60
2023/10/02 03:01:22;;;;;;;27.85;14.65;;;16.80;99.90;;;;;;4941858;28;20077;-59
2023/10/02 03:03:51;;;;;;;29.58;14.10;;;16.80;99.90;;;;;;4942227;28;20066;-60
2023/10/02 03:06:23;;;;;;;33.17;14.52;;;16.80;99.90;;;;;;4924870;29;20435;-60
2023/10/02 03:08:53;;;;;;;29.15;14.32;;;16.70;99.90;;;;;;4941679;28;20031;-59
2023/10/02 03:11:28;;;;;;;29.33;14.68;;;16.70;99.90;;;;;;4941743;28;20039;-59
2023/10/02 03:14:11;;;;;;;31.08;15.20;;;16.70;99.90;;;;;;4941008;28;20459;-60
2023/10/02 03:16:38;;;;;;;40.90;14.82;;;16.70;99.90;;;;;;4933797;28;20047;-59
2023/10/02 03:19:07;;;;;;;30.75;14.45;;;16.70;99.90;;;;;;4943730;28;20039;-59
2023/10/02 03:21:37;;;;;;;28.45;14.95;;;16.70;99.90;;;;;;4939689;28;20036;-59
2023/10/02 03:24:04;;;;;;;29.50;14.90;;;16.70;99.90;;;;;;4943206;28;20035;-60
2023/10/02 03:29:04;;;;;;;37.78;15.80;;;16.60;99.90;;;;;;4958488;28;20494;-59
2023/10/02 03:31:51;;;;;;;28.30;14.35;;;16.60;99.90;;;;;;4960718;28;20042;-59
2023/10/02 03:34:27;;;;;;;28.58;14.95;;;16.60;99.90;;;;;;4962119;28;20054;-59
2023/10/02 03:37:08;;;;;;;30.20;14.65;;;16.60;99.90;;;;;;4963379;28;20442;-60
2023/10/02 03:39:59;;;;;;;28.50;15.48;;;16.60;99.90;;;;;;4961459;28;20031;-60
2023/10/02 03:42:32;;;;;;;33.17;16.30;;;16.50;99.90;;;;;;4960737;28;20082;-59
2023/10/02 03:45:05;;;;;;;34.10;15.30;;;16.50;99.90;;;;;;4961014;28;20034;-59
2023/10/02 03:47:33;;;;;;;32.70;15.18;;;16.50;99.90;;;;;;4960596;28;20065;-60
2023/10/02 03:50:03;;;;;;;30.90;15.77;;;16.50;99.90;;;;;;4960522;28;20038;-60
2023/10/02 03:52:31;;;;;;;31.20;15.10;;;16.50;99.90;;;;;;4961104;28;20372;-61
2023/10/02 03:54:58;;;;;;;33.50;15.73;;;16.50;99.90;;;;;;4961294;28;20507;-60
2023/10/02 04:00:19;;;;;;;35.95;16.25;;;16.50;99.90;;;;;;4960896;28;20050;-59
2023/10/02 04:02:50;;;;;;;32.85;15.75;;;16.50;99.90;;;;;;4959858;28;20097;-60
2023/10/02 04:05:30;;;;;;;31.40;15.25;;;16.50;99.90;;;;;;4960075;28;20042;-60
2023/10/02 04:08:12;;;;;;;30.48;15.43;;;16.50;99.90;;;;;;4962017;28;20138;-60
2023/10/02 04:10:51;;;;;;;37.65;16.23;;;16.50;99.90;;;;;;4959368;28;20491;-60
2023/10/02 04:13:23;;;;;;;31.75;14.43;;;16.50;99.90;;;;;;4961115;28;20185;-60
2023/10/02 04:16:28;;;;;;;33.00;14.93;;;16.40;99.90;;;;;;4960213;28;20038;-58
2023/10/02 04:18:46;;;;;;;30.92;15.13;;;16.40;99.90;;;;;;4959877;28;20419;-59
2023/10/02 04:21:22;;;;;;;33.50;15.63;;;16.40;99.90;;;;;;4955831;28;20043;-60
2023/10/02 04:23:52;;;;;;;31.98;15.50;;;16.40;99.90;;;;;;4959717;28;20458;-61
2023/10/02 04:26:24;;;;;;;32.65;15.77;;;16.40;99.90;;;;;;4959424;28;20052;-60
2023/10/02 04:28:55;;;;;;;32.08;14.63;;;16.40;99.90;;;;;;4941599;28;20121;-59
2023/10/02 04:31:27;;;;;;;30.33;15.30;;;16.40;99.90;;;;;;4941118;28;20106;-60
2023/10/02 04:36:40;;;;;;;29.33;15.68;;;16.40;99.90;;;;;;4954671;28;20051;-61
2023/10/02 04:39:36;;;;;;;29.88;15.80;;;16.50;99.90;;;;;;4939442;28;20035;-59
2023/10/02 04:42:12;;;;;;;29.33;15.45;;;16.50;99.90;;;;;;4939754;28;20055;-60
2023/10/02 04:44:48;;;;;;;28.88;14.90;;;16.40;99.90;;;;;;4917768;28;20039;-60
2023/10/02 04:47:20;;;;;;;32.70;16.35;;;16.40;99.90;;;;;;4919573;29;20578;-60
2023/10/02 04:55:27;;;;;;;27.80;15.05;;;16.50;99.90;;;;;;4920116;28;20129;-59
2023/10/02 04:57:55;;;;;;;31.20;15.57;;;16.50;99.90;;;;;;4941450;28;20043;-60
2023/10/02 05:00:33;;;;;;;28.13;16.13;;;16.50;99.90;;;;;;4939533;28;20063;-60
2023/10/02 05:03:09;;;;;;;32.03;15.40;;;16.50;99.90;;;;;;4939807;28;20042;-60
2023/10/02 05:05:47;;;;;;;31.23;16.27;;;16.50;99.90;;;;;;4939600;28;20027;-61
2023/10/02 05:08:33;;;;;;;30.38;15.82;;;16.50;99.90;;;;;;4938164;28;20051;-58
2023/10/02 05:11:06;;;;;;;34.78;16.55;;;16.50;99.90;;;;;;4939618;28;20368;-60
2023/10/02 05:16:26;;;;;;;35.20;16.92;;;16.50;99.90;;;;;;4942505;28;20043;-59
2023/10/02 05:18:54;;;;;;;34.97;16.35;;;16.50;99.90;;;;;;4938347;28;20250;-59
2023/10/02 05:21:35;;;;;;;35.92;16.88;;;16.50;99.90;;;;;;4938275;28;20624;-59
2023/10/02 05:24:03;;;;;;;34.53;15.95;;;16.40;99.90;;;;;;4933565;28;20049;-60
2023/10/02 05:26:39;;;;;;;29.63;15.77;;;16.40;99.90;;;;;;4915420;28;20542;-60
2023/10/02 05:29:17;;;;;;;33.50;16.10;;;16.40;99.90;;;;;;4958962;28;20483;-59
2023/10/02 05:31:43;;;;;;;37.40;16.80;;;16.40;99.90;;;;;;4958024;28;20052;-60
2023/10/02 05:34:16;;;;;;;34.45;16.60;;;16.40;99.90;;;;;;4962152;28;20574;-60
2023/10/02 05:37:03;;;;;;;29.45;16.35;;;16.40;99.90;;;;;;4960243;28;20473;-60
2023/10/02 05:39:28;;;;;;;31.45;16.95;;;16.30;99.90;;;;;;4959251;28;20081;-60
2023/10/02 05:42:05;;;;;;;33.97;17.13;;;16.30;99.90;;;;;;4962388;28;20046;-60
2023/10/02 05:44:35;;;;;;;32.70;16.55;;;16.30;99.90;;;;;;4945090;28;20093;-60
2023/10/02 05:47:05;;;;;;;30.15;16.17;;;16.30;99.90;;;;;;4958798;28;20070;-59
2023/10/02 05:49:49;;;;;;;30.65;16.17;;;16.30;99.90;;;;;;4965389;28;20506;-59
2023/10/02 05:52:18;;;;;;;32.75;16.50;;;16.30;99.90;;;;;;4961161;28;20488;-59
2023/10/02 05:54:49;;;;;;;33.15;16.63;;;16.20;99.90;;;;;;4978379;28;20097;-61
2023/10/02 05:57:17;;;;;;;30.45;15.50;;;16.20;99.90;;;;;;4949216;28;20047;-61
2023/10/02 05:59:44;;;;;;;34.15;15.88;;;16.20;99.90;;;;;;4960176;28;20389;-60
2023/10/02 06:02:14;;;;;;;31.08;15.90;;;16.20;99.90;;;;;;4959561;28;20042;-61
2023/10/02 06:04:48;;;;;;;33.45;16.88;;;16.20;99.90;;;;;;4961327;28;20035;-60
2023/10/02 06:12:48;;;;;;;36.17;17.88;;;16.20;99.90;;;;;;4943828;28;20149;-61
2023/10/02 06:17:59;;;;;;;30.67;16.15;;;16.20;99.90;;;;;;4955949;28;20495;-59
2023/10/02 06:20:25;;;;;;;34.53;17.70;;;16.20;99.90;;;;;;4939911;28;20042;-61
2023/10/02 06:23:03;;;;;;;29.70;16.75;;;16.20;99.90;;;;;;4960359;28;20039;-61
2023/10/02 06:25:29;;;;;;;33.80;17.23;;;16.30;99.90;;;;;;4954235;28;20043;-60
2023/10/02 06:28:19;;;;;;;34.83;18.25;;;16.20;99.90;;;;;;4943529;28;20101;-61
2023/10/02 06:30:43;;;;;;;35.03;17.85;;;16.30;99.90;;;;;;4962186;28;20466;-60
2023/10/02 06:33:10;;;;;;;32.28;17.50;;;16.30;99.90;;;;;;4960077;28;20053;-61
2023/10/02 06:35:44;;;;;;;31.90;17.38;;;16.30;99.90;;;;;;4963122;28;20043;-61
2023/10/02 06:38:16;;;;;;;33.75;17.08;;;16.30;99.90;;;;;;4961890;28;20053;-61
2023/10/02 06:40:55;;;;;;;33.10;17.85;;;16.30;99.90;;;;;;4966220;28;20451;-61
2023/10/02 06:43:28;;;;;;;36.97;17.98;;;16.30;99.90;;;;;;4964557;28;20272;-61
2023/10/02 06:46:15;;;;;;;30.73;17.25;;;16.30;99.90;;;;;;4961108;28;20125;-61
2023/10/02 06:48:45;;;;;;;36.97;18.25;;;16.30;99.90;;;;;;4960215;28;20074;-61
2023/10/02 06:51:13;;;;;;;36.10;19.42;;;16.40;99.90;;;;;;4962536;28;20034;-61
2023/10/02 06:53:42;;;;;;;38.13;17.88;;;16.40;99.90;;;;;;4964798;28;20046;-61
2023/10/02 06:56:12;;;;;;;38.95;18.70;;;16.40;99.90;;;;;;4961090;28;20034;-61
2023/10/02 06:58:52;;;;;;;36.58;19.48;;;16.40;99.90;;;;;;4947056;28;20047;-61
2023/10/02 07:01:18;;;;;;;42.08;20.20;;;16.50;99.90;;;;;;4974461;28;20042;-61
2023/10/02 07:03:51;;;;;;;36.25;18.73;;;16.50;99.90;;;;;;4960126;28;20055;-61
2023/10/02 07:06:24;;;;;;;34.63;18.45;;;16.60;99.90;;;;;;4957603;28;20039;-61
2023/10/02 07:09:10;;;;;;;36.25;19.13;;;16.60;99.90;;;;;;4942515;28;20673;-61
2023/10/02 07:11:37;;;;;;;40.65;19.80;;;16.60;99.90;;;;;;4960556;28;20456;-61
2023/10/02 07:14:04;;;;;;;36.47;19.33;;;16.70;99.90;;;;;;4962368;28;20065;-61
2023/10/02 07:16:33;;;;;;;36.03;19.13;;;16.70;99.90;;;;;;4960393;28;20046;-61
2023/10/02 07:18:59;;;;;;;40.65;19.67;;;16.80;99.90;;;;;;4963420;28;20492;-60
2023/10/02 07:21:30;;;;;;;35.50;19.95;;;16.80;99.90;;;;;;4963529;28;20043;-61
2023/10/02 07:23:58;;;;;;;38.30;19.52;;;16.90;99.90;;;;;;4962432;28;20045;-61
2023/10/02 07:26:49;;;;;;;37.40;19.17;;;17.00;99.90;;;;;;4958550;28;20044;-59
2023/10/02 07:29:10;;;;;;;36.10;18.15;;;17.00;99.90;;;;;;4944739;28;20142;-61
2023/10/02 07:31:36;;;;;;;35.75;18.17;;;17.00;99.90;;;;;;4926803;29;20050;-60
2023/10/02 07:34:02;;;;;;;37.53;19.00;;;17.10;99.90;;;;;;4955946;28;20040;-60
2023/10/02 07:36:32;;;;;;;37.50;19.02;;;17.20;99.90;;;;;;4941899;28;20101;-60
2023/10/02 07:39:00;;;;;;;38.50;19.42;;;17.30;99.90;;;;;;4942742;28;20039;-61
2023/10/02 07:41:28;;;;;;;44.03;19.38;;;17.40;99.90;;;;;;4944301;28;20047;-61
2023/10/02 07:44:07;;;;;;;39.45;19.17;;;17.40;99.90;;;;;;4938332;28;20049;-60
2023/10/02 07:46:33;;;;;;;39.85;19.05;;;17.50;99.90;;;;;;4941538;28;20118;-61
2023/10/02 07:49:00;;;;;;;35.72;19.52;;;17.50;99.90;;;;;;4939933;28;20399;-59
2023/10/02 07:51:30;;;;;;;36.15;19.10;;;17.60;99.90;;;;;;4940262;28;20626;-60
2023/10/02 07:54:03;;;;;;;41.33;19.52;;;17.70;99.90;;;;;;4938926;28;20337;-61
2023/10/02 07:56:29;;;;;;;;;;;17.70;99.90;;;;;;4939582;28;20416;-61
2023/10/02 07:59:01;;;;;;;40.28;19.27;;;17.80;99.90;;;;;;4942116;28;20480;-61
2023/10/02 08:01:27;;;;;;;38.83;19.02;;;17.90;99.90;;;;;;4936886;28;20165;-61
2023/10/02 08:03:55;;;;;;;36.15;19.13;;;17.90;99.90;;;;;;4940575;28;20095;-61
2023/10/02 08:06:36;;;;;;;36.28;18.88;;;18.00;99.90;;;;;;4924692;29;20131;-61
2023/10/02 08:11:53;;;;;;;33.70;18.88;;;18.10;99.90;;;;;;4941366;28;20476;-60
2023/10/02 08:14:41;;;;;;;39.72;19.48;;;18.20;99.90;;;;;;4941071;28;20047;-62
2023/10/02 08:17:18;;;;;;;36.45;18.95;;;18.30;99.90;;;;;;4943767;29;20057;-61
2023/10/02 08:19:54;;;;;;;35.45;18.90;;;18.30;99.90;;;;;;4943269;28;20166;-61
2023/10/02 08:22:35;;;;;;;34.67;18.83;;;18.40;99.90;;;;;;4936535;28;20047;-61
2023/10/02 08:25:13;;;;;;;30.73;17.65;;;18.50;99.90;;;;;;4927099;28;20094;-61
2023/10/02 08:27:57;;;;;;;35.45;19.90;;;18.60;99.90;;;;;;4941525;28;20320;-61
2023/10/02 08:30:31;;;;;;;36.17;18.77;;;18.60;99.90;;;;;;4942069;28;20661;-62
2023/10/02 08:33:11;;;;;;;37.55;19.08;;;18.80;99.90;;;;;;4941507;28;20070;-61
2023/10/02 08:35:37;;;;;;;37.22;18.83;;;18.90;99.90;;;;;;4939925;28;20070;-61
2023/10/02 08:38:21;;;;;;;38.95;18.48;;;18.90;99.90;;;;;;4926155;28;20036;-59
2023/10/02 08:40:57;;;;;;;36.42;18.80;;;19.10;99.90;;;;;;4944148;28;20395;-61
2023/10/02 08:43:24;;;;;;;32.38;18.08;;;19.20;99.90;;;;;;4942206;28;20039;-61
2023/10/02 08:45:50;;;;;;;35.70;18.67;;;19.20;99.90;;;;;;4941082;28;20059;-61
2023/10/02 08:48:19;;;;;;;36.15;19.02;;;19.30;99.90;;;;;;4942988;29;20049;-61
2023/10/02 08:50:47;;;;;;;38.35;20.17;;;19.40;99.90;;;;;;4925976;29;20123;-60
2023/10/02 08:53:20;;;;;;;39.45;19.13;;;19.50;99.90;;;;;;4941943;28;20057;-61
2023/10/02 08:58:16;;;;;;;44.78;21.08;;;19.50;99.90;;;;;;4942392;28;20054;-61
2023/10/02 09:03:44;;;;;;;45.65;20.15;;;19.50;99.90;;;;;;4936012;28;20105;-62
2023/10/02 09:06:26;;;;;;;40.22;19.90;;;19.50;99.90;;;;;;4945994;28;20126;-62
2023/10/02 09:11:37;;;;;;;41.25;19.55;;;19.50;99.90;;;;;;4945045;28;20372;-61
2023/10/02 09:14:21;;;;;;;42.95;20.10;;;19.60;99.90;;;;;;4945261;28;20047;-60
2023/10/02 09:19:46;;;;;;;40.92;20.10;;;19.80;99.90;;;;;;4940313;28;20411;-61
2023/10/02 09:22:20;;;;;;;39.08;20.20;;;20.00;99.90;;;;;;4947502;28;20047;-61
2023/10/02 09:24:58;;;;;;;42.45;20.65;;;19.90;99.90;;;;;;4944983;28;20450;-61
2023/10/02 09:27:30;;;;;;;42.10;20.80;;;20.00;99.90;;;;;;4946748;28;20059;-61
2023/10/02 09:33:10;;;;;;;39.05;19.73;;;20.10;99.90;;;;;;4908110;29;20110;-62
2023/10/02 09:35:40;;;;;;;41.10;19.35;;;20.20;99.90;;;;;;4956498;28;20062;-61
2023/10/02 09:38:16;;;;;;;40.10;20.70;;;20.20;99.90;;;;;;4949130;28;20045;-61
2023/10/02 09:40:54;;;;;;;44.03;19.90;;;20.30;99.90;;;;;;4962012;28;20038;-60
2023/10/02 09:43:31;;;;;;;43.95;19.92;;;20.40;99.90;;;;;;4966710;28;20047;-62
2023/10/02 09:46:15;;;;;;;39.35;19.60;;;20.40;99.90;;;;;;4962019;28;20070;-61
2023/10/02 09:49:03;;;;;;;42.85;19.35;;;20.40;99.90;;;;;;4946254;28;20050;-61
2023/10/02 09:52:23;;;;;;;35.30;17.83;;;20.40;99.90;;;;;;4964296;28;20266;-61
2023/10/02 09:55:08;;;;;;;37.95;18.58;;;20.50;99.90;;;;;;4965154;28;20035;-62
2023/10/02 09:57:38;;;;;;;35.35;18.65;;;20.70;99.90;;;;;;4964893;28;20049;-61
2023/10/02 10:00:34;;;;;;;35.67;18.88;;;20.80;99.90;;;;;;4965048;28;20070;-62
2023/10/02 10:03:32;;;;;;;36.40;18.90;;;20.80;99.90;;;;;;4946287;28;20046;-61
2023/10/02 10:06:08;;;;;;;44.00;19.67;;;20.90;99.90;;;;;;4957845;28;20046;-61
2023/10/02 10:14:42;;;;;;;31.38;17.58;;;21.00;99.90;;;;;;4962176;28;20086;-61
2023/10/02 10:17:16;;;;;;;34.95;19.08;;;21.10;99.90;;;;;;4964073;28;20511;-61
2023/10/02 10:19:53;;;;;;;38.47;18.83;;;21.30;99.90;;;;;;4963526;28;20440;-61
2023/10/02 10:22:35;;;;;;;34.40;18.17;;;21.40;99.90;;;;;;4965699;28;20410;-61
2023/10/02 10:27:39;;;;;;;37.88;18.75;;;21.60;99.90;;;;;;4963374;28;20054;-61
2023/10/02 10:30:39;;;;;;;34.33;17.85;;;21.60;99.90;;;;;;4963109;28;20093;-61
2023/10/02 10:35:40;;;;;;;34.50;17.52;;;22.00;99.90;;;;;;4963164;28;20051;-61
2023/10/02 10:41:31;;;;;;;32.58;16.13;;;22.20;99.90;;;;;;4943633;28;20391;-60
2023/10/02 10:43:59;;;;;;;33.17;16.02;;;22.30;99.90;;;;;;4965150;28;20042;-60
2023/10/02 10:46:29;;;;;;;32.22;16.05;;;22.40;99.90;;;;;;4963188;28;20407;-61
2023/10/02 10:49:07;;;;;;;29.95;15.48;;;22.50;99.90;;;;;;4960749;28;20050;-61
2023/10/02 10:51:42;;;;;;;32.25;16.02;;;22.60;99.90;;;;;;4964408;28;20536;-61
2023/10/02 10:54:25;;;;;;;30.80;15.88;;;22.60;99.90;;;;;;4964130;28;20042;-62
2023/10/02 10:57:18;;;;;;;33.75;16.15;;;22.70;99.90;;;;;;4974915;28;20162;-60
2023/10/02 11:00:23;;;;;;;30.75;16.00;;;22.70;99.90;;;;;;4972229;28;20610;-61
2023/10/02 11:03:54;;;;;;;31.67;16.17;;;22.60;99.90;;;;;;4953546;28;20093;-61
2023/10/02 11:05:51;;;;;;;35.00;16.98;;;22.50;99.90;;;;;;4954438;28;20173;-60
2023/10/02 11:08:24;;;;;;;33.08;16.00;;;22.40;99.90;;;;;;4926906;28;20561;-59
2023/10/02 11:11:11;;;;;;;35.63;17.15;;;22.40;99.90;;;;;;4935859;28;20058;-61
2023/10/02 11:13:54;;;;;;;28.77;15.60;;;22.30;99.90;;;;;;4955225;28;20574;-59
2023/10/02 11:16:37;;;;;;;30.13;15.63;;;22.30;99.90;;;;;;4967179;28;20504;-60
2023/10/02 11:19:55;;;;;;;33.53;16.92;;;22.30;99.90;;;;;;4952323;28;20657;-61
2023/10/02 11:22:19;;;;;;;33.22;17.05;;;22.30;99.90;;;;;;4952054;28;20047;-61
2023/10/02 11:24:48;;;;;;;34.05;16.27;;;22.30;99.90;;;;;;4948788;28;20038;-61
2023/10/02 11:27:18;;;;;;;31.02;15.95;;;22.40;99.90;;;;;;4953354;28;20059;-61
2023/10/02 11:30:03;;;;;;;35.10;16.98;;;22.40;99.90;;;;;;4949182;28;20058;-61
2023/10/02 11:33:04;;;;;;;28.98;15.43;;;22.50;99.90;;;;;;4936600;28;20114;-61
2023/10/02 11:35:41;;;;;;;29.33;15.45;;;22.70;99.90;;;;;;4903608;29;20066;-60
2023/10/02 11:38:07;;;;;;;30.73;15.65;;;22.70;99.90;;;;;;4936990;28;20051;-61
2023/10/02 11:40:34;;;;;;;28.35;15.50;;;22.80;99.90;;;;;;4934555;28;20052;-61
2023/10/02 11:43:00;;;;;;;35.88;16.50;;;23.00;99.90;;;;;;4934272;28;20049;-62
2023/10/02 11:45:29;;;;;;;25.48;14.57;;;23.20;99.90;;;;;;4934210;29;20462;-62
2023/10/02 11:47:55;;;;;;;33.13;16.33;;;23.30;99.90;;;;;;4929547;28;20803;-60
2023/10/02 11:50:22;;;;;;;29.70;16.48;;;23.40;99.90;;;;;;4927634;28;20576;-60
2023/10/02 11:52:47;;;;;;;28.02;15.05;;;23.40;99.90;;;;;;4927808;28;20149;-61
2023/10/02 11:55:17;;;;;;;30.02;16.55;;;23.50;99.90;;;;;;4932998;28;20050;-62
2023/10/02 11:57:53;;;;;;;32.83;16.30;;;23.60;99.90;;;;;;4918211;29;20059;-62
2023/10/02 12:00:23;;;;;;;32.90;17.83;;;23.70;99.90;;;;;;4930907;28;20035;-60
2023/10/02 12:02:49;;;;;;;30.60;18.25;;;23.60;99.90;;;;;;4933269;28;20039;-62
2023/10/02 12:05:18;;;;;;;32.15;17.30;;;23.60;99.90;;;;;;4932374;28;20054;-61
2023/10/02 12:07:44;;;;;;;35.65;17.25;;;23.50;99.90;;;;;;4921502;28;20094;-61
2023/10/02 12:10:15;;;;;;;33.17;18.33;;;23.50;99.90;;;;;;4927054;28;20872;-61
2023/10/02 12:12:45;;;;;;;34.25;17.55;;;23.40;99.90;;;;;;4925481;28;20411;-60
2023/10/02 12:15:14;;;;;;;30.02;18.13;;;23.40;99.90;;;;;;4884891;28;20047;-62
2023/10/02 12:17:40;;;;;;;32.65;18.00;;;23.40;99.90;;;;;;4932939;28;20051;-62
2023/10/02 12:20:10;;;;;;;28.52;17.38;;;23.30;99.90;;;;;;4931159;28;20039;-60
2023/10/02 12:22:37;;;;;;;30.17;17.45;;;23.30;99.90;;;;;;4925440;28;20106;-62
2023/10/02 12:25:09;;;;;;;34.13;18.75;;;23.20;99.90;;;;;;4933510;28;20144;-61
2023/10/02 12:27:38;;;;;;;33.50;18.35;;;23.20;99.90;;;;;;4916266;28;20118;-61
2023/10/02 12:30:05;;;;;;;32.55;18.23;;;23.10;99.90;;;;;;4932468;28;20542;-62
2023/10/02 12:32:31;;;;;;;36.13;19.50;;;23.00;99.90;;;;;;4936839;28;20086;-62
2023/10/02 12:34:57;;;;;;;36.88;19.42;;;22.90;99.90;;;;;;4934179;28;20130;-62
2023/10/02 12:37:22;;;;;;;30.75;17.73;;;22.90;99.90;;;;;;4936104;28;20051;-62
2023/10/02 12:39:48;;;;;;;31.80;18.13;;;22.90;99.90;;;;;;4917024;28;20042;-62
2023/10/02 12:42:15;;;;;;;33.55;18.67;;;23.00;99.90;;;;;;4939157;28;20039;-62
2023/10/02 12:44:41;;;;;;;30.58;17.80;;;23.00;99.90;;;;;;4938163;28;20073;-61
2023/10/02 12:47:07;;;;;;;30.65;16.25;;;23.10;99.90;;;;;;4925308;28;20131;-61
2023/10/02 12:49:35;;;;;;;31.25;16.92;;;23.20;99.90;;;;;;4937619;28;20521;-61
2023/10/02 12:52:01;;;;;;;31.35;15.95;;;23.20;99.90;;;;;;4937929;28;20545;-62
2023/10/02 12:54:27;;;;;;;28.33;15.75;;;23.20;99.90;;;;;;4935729;28;20050;-61
2023/10/02 12:56:53;;;;;;;29.60;15.30;;;23.20;99.90;;;;;;4941714;28;20054;-61
2023/10/02 12:59:19;;;;;;;27.25;15.20;;;23.20;99.90;;;;;;4917568;28;20093;-61
2023/10/02 13:01:45;;;;;;;29.98;16.63;;;23.20;99.90;;;;;;4928682;28;20390;-61
2023/10/02 13:04:12;;;;;;;30.73;17.25;;;23.10;99.90;;;;;;4931434;28;20659;-60
2023/10/02 13:06:38;;;;;;;28.08;15.82;;;23.10;99.90;;;;;;4930079;28;20057;-62
2023/10/02 13:09:10;;;;;;;29.75;17.50;;;23.10;99.90;;;;;;4922490;28;20043;-61
2023/10/02 13:11:47;;;;;;;33.50;18.75;;;23.00;99.90;;;;;;4936723;28;20054;-60
2023/10/02 13:14:12;;;;;;;33.72;17.70;;;23.00;99.90;;;;;;4927392;28;20099;-61
2023/10/02 13:16:42;;;;;;;30.88;17.65;;;22.90;99.90;;;;;;4942944;28;20570;-61
2023/10/02 13:19:09;;;;;;;27.05;15.88;;;22.90;99.90;;;;;;4939867;28;20049;-60
2023/10/02 13:21:37;;;;;;;31.73;16.60;;;23.00;99.90;;;;;;4943520;28;20039;-61
2023/10/02 13:24:05;;;;;;;28.55;16.73;;;23.10;99.90;;;;;;4940308;28;20046;-62
2023/10/02 13:26:31;;;;;;;32.72;17.38;;;23.20;99.90;;;;;;4937810;28;20106;-62
2023/10/02 13:28:56;;;;;;;34.33;17.77;;;23.20;99.90;;;;;;4944709;28;20059;-61
2023/10/02 13:31:24;;;;;;;29.50;16.65;;;23.20;99.90;;;;;;4925166;29;20126;-62
2023/10/02 13:33:53;;;;;;;33.03;16.50;;;23.20;99.90;;;;;;4923333;28;20055;-60
2023/10/02 13:36:23;;;;;;;33.88;18.50;;;23.20;99.90;;;;;;4942369;28;20047;-61
2023/10/02 13:38:55;;;;;;;32.28;18.55;;;23.30;99.90;;;;;;4943432;28;20134;-61
2023/10/02 13:41:21;;;;;;;30.58;17.42;;;23.30;99.90;;;;;;4943148;28;20039;-61
2023/10/02 13:43:49;;;;;;;32.20;17.08;;;23.30;99.90;;;;;;4952639;28;20090;-62
2023/10/02 13:46:22;;;;;;;27.77;15.93;;;23.20;99.90;;;;;;4899389;28;20047;-62
2023/10/02 13:48:52;;;;;;;34.72;17.92;;;23.20;99.90;;;;;;4932203;28;20077;-62
2023/10/02 13:51:18;;;;;;;28.80;15.48;;;23.20;99.90;;;;;;4933636;28;20043;-62
2023/10/02 13:53:45;;;;;;;35.28;17.13;;;23.20;99.90;;;;;;4920173;29;20039;-62
2023/10/02 13:56:20;;;;;;;30.75;17.23;;;23.20;99.90;;;;;;4936416;28;20051;-62
2023/10/02 13:58:50;;;;;;;31.48;16.15;;;23.20;99.90;;;;;;4934880;28;20646;-62
2023/10/02 14:01:27;;;;;;;30.95;17.50;;;23.30;99.90;;;;;;4939036;28;20130;-61